createdAt,value
2023-04-23T00:00:20.641Z,12.82
2023-04-23T00:05:27.281Z,9.65
2023-04-23T00:10:30.274Z,12.27
2023-04-23T00:15:33.259Z,10.90
2023-04-23T00:20:37.045Z,11.13
2023-04-23T00:25:39.668Z,11.88
2023-04-23T00:30:41.812Z,14.25
2023-04-23T00:35:44.472Z,11.27
2023-04-23T00:40:47.146Z,10.65
2023-04-23T00:45:51.338Z,10.18
2023-04-23T00:51:01.084Z,11.15
2023-04-23T00:56:06.336Z,11.68
2023-04-23T01:01:10.095Z,10.82
2023-04-23T01:06:12.847Z,9.65
2023-04-23T01:11:16.087Z,10.85
2023-04-23T01:16:18.835Z,12.82
2023-04-23T01:21:21.792Z,16.30
2023-04-23T01:26:25.054Z,12.10
2023-04-23T01:31:29.111Z,10.70
2023-04-23T01:36:33.516Z,16.17
2023-04-23T01:41:36.923Z,12.20
2023-04-23T01:46:39.322Z,14.68
2023-04-23T01:51:43.368Z,16.23
2023-04-23T01:56:46.071Z,12.43
2023-04-23T02:01:50.322Z,9.98
2023-04-23T02:06:53.560Z,11.88
2023-04-23T02:11:57.943Z,13.95
2023-04-23T02:17:00.619Z,12.95
2023-04-23T02:22:04.081Z,12.10
2023-04-23T02:27:06.276Z,12.88
2023-04-23T02:32:08.932Z,12.00
2023-04-23T02:37:12.444Z,11.15
2023-04-23T02:42:14.961Z,10.40
2023-04-23T02:47:17.640Z,11.60
2023-04-23T02:52:20.447Z,12.15
2023-04-23T02:57:23.344Z,9.88
2023-04-23T03:02:26.426Z,14.95
2023-04-23T03:07:28.792Z,11.35
2023-04-23T03:12:31.387Z,18.30
2023-04-23T03:17:34.618Z,11.57
2023-04-23T03:22:37.955Z,12.93
2023-04-23T03:27:44.271Z,10.30
2023-04-23T03:32:47.091Z,12.52
2023-04-23T03:37:50.217Z,13.43
2023-04-23T03:42:53.606Z,12.43
2023-04-23T03:48:03.805Z,14.40
2023-04-23T03:53:08.293Z,13.32
2023-04-23T03:58:29.493Z,11.98
2023-04-23T04:03:32.739Z,30.75
2023-04-23T04:08:35.644Z,16.38
2023-04-23T04:13:38.382Z,14.57
2023-04-23T04:18:40.694Z,15.07
2023-04-23T04:23:45.404Z,14.68
2023-04-23T04:28:48.122Z,12.93
2023-04-23T04:33:51.100Z,15.55
2023-04-23T04:38:58.933Z,12.65
2023-04-23T04:44:01.611Z,16.10
2023-04-23T04:49:04.510Z,12.90
2023-04-23T04:54:08.018Z,11.57
2023-04-23T04:59:11.286Z,9.85
2023-04-23T05:04:14.322Z,13.35
2023-04-23T05:09:17.637Z,10.43
2023-04-23T05:14:20.324Z,13.18
2023-04-23T05:19:23.875Z,9.57
2023-04-23T05:24:26.643Z,9.25
2023-04-23T05:29:29.264Z,7.45
2023-04-23T05:34:31.927Z,14.10
2023-04-23T05:39:34.646Z,7.88
2023-04-23T05:44:37.340Z,9.60
2023-04-23T05:49:40.223Z,11.43
2023-04-23T05:54:43.564Z,7.38
2023-04-23T05:59:46.487Z,7.43
2023-04-23T06:04:49.189Z,11.35
2023-04-23T06:09:52.081Z,7.53
2023-04-23T06:14:55.012Z,8.38
2023-04-23T06:19:57.750Z,6.20
2023-04-23T06:25:00.575Z,7.85
2023-04-23T06:30:03.195Z,10.85
2023-04-23T06:35:08.517Z,7.72
2023-04-23T06:40:11.821Z,7.05
2023-04-23T06:45:15.580Z,5.22
2023-04-23T06:50:18.284Z,4.63
2023-04-23T06:55:22.285Z,6.38
2023-04-23T07:00:25.523Z,8.05
2023-04-23T07:05:28.433Z,6.28
2023-04-23T07:10:31.616Z,6.60
2023-04-23T07:15:33.937Z,7.80
2023-04-23T07:20:36.861Z,8.30
2023-04-23T07:25:39.224Z,7.18
2023-04-23T07:30:41.975Z,10.40
2023-04-23T07:35:44.523Z,10.32
2023-04-23T07:40:47.969Z,7.18
2023-04-23T07:45:50.708Z,7.60
2023-04-23T07:50:54.164Z,8.02
2023-04-23T07:55:57.225Z,10.65
2023-04-23T08:00:59.925Z,8.88
2023-04-23T08:06:04.721Z,7.85
2023-04-23T08:11:26.472Z,8.63
2023-04-23T08:16:30.876Z,9.55
2023-04-23T08:21:34.257Z,9.68
2023-04-23T08:26:37.096Z,8.77
2023-04-23T08:31:39.995Z,11.70
2023-04-23T08:36:43.103Z,8.75
2023-04-23T08:41:49.604Z,7.40
2023-04-23T08:46:54.846Z,5.85
2023-04-23T08:52:05.729Z,6.35
2023-04-23T08:57:10.207Z,6.80
2023-04-23T09:02:13.170Z,6.88
2023-04-23T09:07:17.994Z,6.82
2023-04-23T09:12:22.105Z,6.10
2023-04-23T09:17:30.008Z,5.65
2023-04-23T09:22:48.362Z,8.20
2023-04-23T09:27:53.098Z,6.15
2023-04-23T09:32:56.087Z,6.90
2023-04-23T09:37:58.914Z,7.15
2023-04-23T09:43:05.049Z,11.63
2023-04-23T09:48:07.764Z,3.65
2023-04-23T09:53:11.097Z,6.78
2023-04-23T09:58:15.921Z,8.43
2023-04-23T10:03:27.983Z,9.07
2023-04-23T10:08:32.646Z,5.85
2023-04-23T10:13:38.586Z,5.45
2023-04-23T10:18:41.393Z,7.50
2023-04-23T10:23:47.634Z,6.43
2023-04-23T10:28:55.087Z,9.45
2023-04-23T10:33:59.687Z,7.65
2023-04-23T10:39:07.994Z,5.68
2023-04-23T10:44:16.129Z,5.97
2023-04-23T10:49:18.950Z,5.28
2023-04-23T10:54:21.562Z,5.20
2023-04-23T10:59:24.338Z,6.72
2023-04-23T11:04:29.483Z,8.07
2023-04-23T11:09:35.037Z,6.88
2023-04-23T11:14:43.275Z,7.63
2023-04-23T11:20:22.426Z,5.22
2023-04-23T11:25:27.433Z,5.68
2023-04-23T11:30:30.912Z,7.30
2023-04-23T11:35:40.816Z,7.82
2023-04-23T11:40:48.656Z,6.40
2023-04-23T11:45:51.089Z,4.63
2023-04-23T11:50:53.776Z,5.53
2023-04-23T11:55:56.582Z,6.88
2023-04-23T12:01:02.855Z,12.70
2023-04-23T12:06:05.845Z,6.15
2023-04-23T12:11:08.980Z,9.27
2023-04-23T12:16:11.411Z,14.35
2023-04-23T12:21:15.311Z,5.97
2023-04-23T12:26:20.593Z,11.15
2023-04-23T12:31:32.546Z,15.05
2023-04-23T12:36:36.920Z,8.10
2023-04-23T12:41:39.808Z,6.45
2023-04-23T12:46:42.547Z,4.70
2023-04-23T12:51:45.234Z,4.55
2023-04-23T12:56:47.932Z,6.80
2023-04-23T13:01:51.533Z,7.82
2023-04-23T13:06:54.772Z,6.68
2023-04-23T13:11:57.688Z,15.00
2023-04-23T13:17:00.519Z,8.68
2023-04-23T13:22:04.974Z,14.70
2023-04-23T13:27:07.964Z,10.45
2023-04-23T13:32:10.780Z,12.27
2023-04-23T13:37:13.584Z,6.93
2023-04-23T13:42:16.250Z,6.28
2023-04-23T13:47:18.647Z,12.70
2023-04-23T13:52:21.287Z,8.60
2023-04-23T13:57:24.193Z,7.03
2023-04-23T14:02:27.131Z,32.15
2023-04-23T14:07:29.535Z,17.30
2023-04-23T14:12:32.834Z,23.02
2023-04-23T14:17:37.428Z,53.15
2023-04-23T14:22:41.033Z,9.63
2023-04-23T14:27:47.647Z,10.45
2023-04-23T14:32:50.611Z,49.45
2023-04-23T14:37:53.381Z,13.73
2023-04-23T14:43:01.895Z,15.55
2023-04-23T14:48:10.925Z,10.23
2023-04-23T14:53:13.627Z,11.90
2023-04-23T14:58:16.221Z,9.07
2023-04-23T15:03:19.181Z,7.85
2023-04-23T15:08:21.858Z,8.65
2023-04-23T15:13:29.258Z,8.10
2023-04-23T15:18:34.015Z,12.00
2023-04-23T15:23:36.683Z,12.55
2023-04-23T15:28:39.373Z,10.10
2023-04-23T15:33:42.129Z,15.73
2023-04-23T15:38:44.495Z,10.23
2023-04-23T15:43:49.035Z,37.88
2023-04-23T15:48:51.749Z,17.35
2023-04-23T15:53:54.429Z,17.27
2023-04-23T15:58:57.292Z,7.85
2023-04-23T16:04:09.521Z,9.50
2023-04-23T16:09:13.336Z,17.55
2023-04-23T16:14:16.002Z,43.30
2023-04-23T16:19:18.569Z,18.45
2023-04-23T16:24:23.372Z,29.35
2023-04-23T16:29:25.713Z,35.45
2023-04-23T16:34:28.309Z,14.60
2023-04-23T16:39:31.263Z,34.42
2023-04-23T16:44:33.960Z,31.83
2023-04-23T16:49:36.992Z,23.38
2023-04-23T16:54:39.579Z,16.90
2023-04-23T16:59:42.394Z,21.75
2023-04-23T17:04:48.445Z,38.60
2023-04-23T17:09:50.956Z,43.17
2023-04-23T17:14:53.576Z,37.60
2023-04-23T17:19:56.329Z,48.58
2023-04-23T17:24:59.092Z,27.77
2023-04-23T17:30:01.756Z,24.10
2023-04-23T17:35:10.244Z,23.25
2023-04-23T17:40:13.476Z,24.00
2023-04-23T17:45:17.594Z,23.63
2023-04-23T17:50:20.796Z,24.77
2023-04-23T17:55:23.751Z,24.48
2023-04-23T18:00:28.739Z,20.67
2023-04-23T18:05:31.663Z,19.08
2023-04-23T18:10:34.649Z,28.88
2023-04-23T18:15:37.929Z,34.45
2023-04-23T18:20:40.672Z,27.95
2023-04-23T18:25:43.354Z,25.50
2023-04-23T18:30:48.861Z,32.80
2023-04-23T18:35:59.524Z,45.00
2023-04-23T18:41:04.884Z,42.80
2023-04-23T18:46:07.651Z,32.33
2023-04-23T18:51:10.517Z,40.90
2023-04-23T18:56:17.572Z,41.33
2023-04-23T19:01:21.049Z,36.53
2023-04-23T19:18:19.032Z,27.45
2023-04-23T19:23:21.712Z,34.58
2023-04-23T19:28:34.752Z,35.60
2023-04-23T19:33:37.690Z,27.73
2023-04-23T19:38:40.961Z,30.20
2023-04-23T19:43:43.381Z,29.58
2023-04-23T19:48:46.009Z,32.75
2023-04-23T19:53:48.648Z,26.95
2023-04-23T19:58:51.436Z,26.13
2023-04-23T20:04:07.620Z,28.30
2023-04-23T20:09:18.525Z,32.25
2023-04-23T20:14:24.945Z,28.65
2023-04-23T20:19:27.883Z,28.17
2023-04-23T20:24:34.061Z,22.88
2023-04-23T20:29:37.062Z,30.95
2023-04-23T20:34:39.783Z,23.48
2023-04-23T20:39:43.178Z,27.92
2023-04-23T20:44:47.374Z,31.23
2023-04-23T20:49:50.163Z,28.10
2023-04-23T20:54:55.513Z,30.88
2023-04-23T21:00:11.963Z,28.92
2023-04-23T21:05:14.846Z,29.85
2023-04-23T21:10:17.596Z,32.25
2023-04-23T21:15:20.424Z,27.50
2023-04-23T21:20:23.160Z,26.00
2023-04-23T21:25:27.051Z,28.80
2023-04-23T21:30:43.285Z,26.02
2023-04-23T21:35:46.577Z,42.75
2023-04-23T21:40:49.196Z,29.20
2023-04-23T21:45:51.400Z,28.38
2023-04-23T21:50:54.083Z,30.73
2023-04-23T21:55:56.599Z,22.40
2023-04-23T22:00:59.161Z,22.38
2023-04-23T22:06:05.075Z,30.05
2023-04-23T22:11:11.695Z,22.23
2023-04-23T22:16:27.482Z,21.10
2023-04-23T22:21:31.493Z,29.95
2023-04-23T22:26:36.279Z,18.08
2023-04-23T22:31:39.033Z,22.60
2023-04-23T22:36:43.532Z,18.52
2023-04-23T22:41:46.289Z,20.10
2023-04-23T22:46:49.017Z,20.58
2023-04-23T22:51:51.594Z,21.50
2023-04-23T22:56:54.294Z,20.13
2023-04-23T23:01:56.797Z,17.52
2023-04-23T23:06:59.540Z,17.85
2023-04-23T23:12:03.573Z,19.70
2023-04-23T23:17:06.631Z,18.33
2023-04-23T23:22:09.475Z,23.40
2023-04-23T23:27:12.054Z,23.92
2023-04-23T23:32:14.793Z,18.38
2023-04-23T23:37:47.320Z,19.90
2023-04-23T23:42:49.952Z,24.23
2023-04-23T23:47:52.554Z,20.83
2023-04-23T23:52:55.288Z,22.67
2023-04-23T23:57:57.833Z,20.02
